Bookmark and Share
Track history (hours):
 

Cherokee

Last reported at 2014-Apr-11 10:28 UTC. Time now 2014-Apr-17 09:48 UTC.
Position N 41°21' E 029°14'.

Length 139 m; draft 2.8 m.

Type: Cargo ship. MMSI: 215059000.

NotesDate/timePositionNaut miles runAvg speedWind from/ knotsBaromVisibWave heightAir tempDewpointWater temp
2014-Apr-11 10:28N 41°21' E 029°14'7 7.6
2014-Apr-11 09:33N 41°15' E 029°10'  
2014-Apr-05 04:32N 37°53' E 024°36'7 6.3
2014-Apr-05 03:25N 37°47' E 024°32'6 6.4
2014-Apr-05 02:34N 37°42' E 024°29'6 6.0
2014-Apr-05 01:33N 37°37' E 024°25'9 6.0
2014-Apr-05 00:06N 37°30' E 024°19'3 5.8
2014-Apr-04 23:30N 37°27' E 024°16'6 6.3
2014-Apr-04 22:32N 37°22' E 024°12'6 6.5
2014-Apr-04 21:33N 37°17' E 024°07'6 6.2
2014-Apr-04 20:32N 37°12' E 024°02'6 6.2
2014-Apr-04 19:33N 37°07' E 023°57'7 6.6
2014-Apr-04 18:33N 37°02' E 023°52'12 6.0
2014-Apr-04 16:28N 36°53' E 023°41'6 6.1
2014-Apr-04 15:32N 36°49' E 023°37'21 6.6
2014-Apr-04 12:25N 36°32' E 023°21'6 6.8
2014-Apr-04 11:33N 36°28' E 023°17'12 6.0
2014-Apr-04 09:31N 36°24' E 023°02'6 6.5
2014-Apr-04 08:31N 36°24' E 022°54'7 6.5
2014-Apr-04 07:31N 36°23' E 022°47'  

Dump ship's entire track history

sailing weather and tide predictions

Cherokee — 9HBC7 — position and weather